Terminal Aerodrome Forecast
Issued by NWS

Current Version | Previous Version | Text Only | Print | Product List | Glossary On
Versions: 1 2 3 4 5 6 7 8 9 10 11 12 13 14 15 16 17 18 19 20 21 22 23
000
FTUS42 KMLB 211733
TAFLEE
TAF
KLEE 211733Z 2118/2218 14008KT P6SM SCT045 OVC200
     FM220300 14006KT P6SM SCT035 OVC100
     FM221200 14008KT P6SM VCSH SCT020 OVC050
     FM221400 14010KT P6SM VCSH SCT025 OVC050
     FM221600 15012KT 4SM RA BR SCT025 OVC050=

USA.gov is the U.S. government's official web portal to all federal, state and local government web resources and services.